createdAt,value
2022-12-20T00:03:51.668Z,9.57
2022-12-20T00:08:56.160Z,5.77
2022-12-20T00:15:04.944Z,6.43
2022-12-20T00:20:03.094Z,6.77
2022-12-20T00:25:02.587Z,5.70
2022-12-20T00:30:00.784Z,6.50
2022-12-20T00:34:59.602Z,5.80
2022-12-20T00:39:57.753Z,8.07
2022-12-20T00:44:57.261Z,7.10
2022-12-20T00:49:55.408Z,7.93
2022-12-20T00:54:53.580Z,8.53
2022-12-20T00:59:51.731Z,7.67
2022-12-20T01:04:51.684Z,6.10
2022-12-20T01:09:49.856Z,7.50
2022-12-20T01:15:13.283Z,6.40
2022-12-20T01:20:13.695Z,6.13
2022-12-20T01:25:11.867Z,8.67
2022-12-20T01:30:11.809Z,7.70
2022-12-20T01:35:11.878Z,6.87
2022-12-20T01:40:11.448Z,6.83
2022-12-20T01:45:21.296Z,6.77
2022-12-20T01:50:20.907Z,6.00
2022-12-20T01:55:23.809Z,7.20
2022-12-20T02:00:22.391Z,10.60
2022-12-20T02:05:24.521Z,9.33
2022-12-20T02:10:25.339Z,7.70
2022-12-20T02:15:36.980Z,5.77
2022-12-20T02:21:06.014Z,7.37
2022-12-20T02:26:23.404Z,6.67
2022-12-20T02:31:29.922Z,7.47
2022-12-20T02:36:28.872Z,5.83
2022-12-20T02:41:31.478Z,6.43
2022-12-20T02:46:32.622Z,8.50
2022-12-20T02:51:33.460Z,7.20
2022-12-20T02:56:36.961Z,7.50
2022-12-20T03:01:41.401Z,7.37
2022-12-20T03:06:40.761Z,7.60
2022-12-20T03:12:04.808Z,7.70
2022-12-20T03:17:09.171Z,6.83
2022-12-20T03:22:09.572Z,6.80
2022-12-20T03:27:07.874Z,6.57
2022-12-20T03:32:07.925Z,7.63
2022-12-20T03:37:06.140Z,7.80
2022-12-20T03:42:04.414Z,6.00
2022-12-20T03:47:02.617Z,8.57
2022-12-20T03:52:02.796Z,6.87
2022-12-20T03:57:01.227Z,8.43
2022-12-20T04:02:00.186Z,7.23
2022-12-20T04:07:01.983Z,6.90
2022-12-20T04:12:00.229Z,8.40
2022-12-20T04:16:59.572Z,6.53
2022-12-20T04:22:05.112Z,6.77
2022-12-20T04:27:17.937Z,7.33
2022-12-20T04:32:16.640Z,6.97
2022-12-20T04:37:15.259Z,7.30
2022-12-20T04:42:25.677Z,6.07
2022-12-20T04:47:25.426Z,6.03
2022-12-20T04:52:47.858Z,6.60
2022-12-20T04:57:49.034Z,5.60
2022-12-20T05:02:47.599Z,5.93
2022-12-20T05:07:49.280Z,5.83
2022-12-20T05:12:50.088Z,6.30
2022-12-20T05:18:02.383Z,6.60
2022-12-20T05:23:28.688Z,6.07
2022-12-20T05:28:38.527Z,5.80
2022-12-20T05:33:37.949Z,6.00
2022-12-20T05:38:36.949Z,5.73
2022-12-20T05:43:43.358Z,7.00
2022-12-20T05:48:42.123Z,7.90
2022-12-20T05:53:40.962Z,9.03
2022-12-20T05:58:40.327Z,6.30
2022-12-20T06:03:41.841Z,5.43
2022-12-20T06:08:45.718Z,7.37
2022-12-20T06:14:03.223Z,7.50
2022-12-20T06:19:03.608Z,6.30
2022-12-20T06:30:59.390Z,5.60
2022-12-20T06:36:13.577Z,7.40
2022-12-20T06:41:11.769Z,8.47
2022-12-20T06:46:11.333Z,8.07
2022-12-20T06:51:09.604Z,6.60
2022-12-20T07:02:33.142Z,7.67
2022-12-20T07:07:31.356Z,8.17
2022-12-20T07:12:29.458Z,4.87
2022-12-20T07:17:27.642Z,6.30
2022-12-20T07:22:27.410Z,6.90
2022-12-20T07:27:25.540Z,7.80
2022-12-20T07:32:24.203Z,8.87
2022-12-20T07:37:24.258Z,8.70
2022-12-20T07:42:27.764Z,8.70
2022-12-20T07:47:35.359Z,7.80
2022-12-20T07:52:35.416Z,6.13
2022-12-20T07:57:39.659Z,4.90
2022-12-20T08:02:41.852Z,5.73
2022-12-20T08:07:42.395Z,5.70
2022-12-20T08:12:45.153Z,7.07
2022-12-20T08:17:43.397Z,8.13
2022-12-20T08:22:41.478Z,8.20
2022-12-20T08:27:41.001Z,7.00
2022-12-20T08:32:39.238Z,7.13
2022-12-20T08:37:37.341Z,6.67
2022-12-20T08:42:35.753Z,6.60
2022-12-20T08:47:36.451Z,6.97
2022-12-20T08:52:34.549Z,6.93
2022-12-20T08:57:32.653Z,7.13
2022-12-20T09:02:31.934Z,7.70
2022-12-20T09:07:31.665Z,6.73
2022-12-20T09:12:29.798Z,4.73
2022-12-20T09:18:08.845Z,5.87
2022-12-20T09:23:08.333Z,6.30
2022-12-20T09:28:06.526Z,5.13
2022-12-20T09:33:10.105Z,3.70
2022-12-20T09:38:10.302Z,4.80
2022-12-20T09:43:11.308Z,5.30
2022-12-20T09:48:16.101Z,4.57
2022-12-20T09:53:25.772Z,5.13
2022-12-20T09:58:38.658Z,3.77
2022-12-20T10:03:38.005Z,6.13
2022-12-20T10:08:46.780Z,6.63
2022-12-20T10:13:59.199Z,5.63
2022-12-20T10:19:09.571Z,5.07
2022-12-20T10:31:07.642Z,6.80
2022-12-20T10:37:07.540Z,5.20
2022-12-20T10:42:23.270Z,6.20
2022-12-20T10:47:32.671Z,5.67
2022-12-20T10:52:30.762Z,3.90
2022-12-20T10:57:31.679Z,5.27
2022-12-20T11:09:21.925Z,4.80
2022-12-20T11:14:22.453Z,5.00
2022-12-20T11:19:34.499Z,4.50
2022-12-20T11:24:40.654Z,4.50
2022-12-20T11:30:05.559Z,5.20
2022-12-20T11:35:12.805Z,4.33
2022-12-20T11:40:28.237Z,4.20
2022-12-20T11:45:35.392Z,4.43
2022-12-20T11:50:46.305Z,3.70
2022-12-20T11:55:50.236Z,5.67
2022-12-20T12:01:14.402Z,4.07
2022-12-20T12:06:20.554Z,5.10
2022-12-20T12:12:04.718Z,5.77
2022-12-20T12:23:22.792Z,4.30
2022-12-20T12:28:23.958Z,3.83
2022-12-20T12:33:26.476Z,4.17
2022-12-20T12:39:09.712Z,3.93
2022-12-20T12:44:32.180Z,4.90
2022-12-20T12:49:33.372Z,3.90
2022-12-20T13:02:35.493Z,4.60
2022-12-20T13:08:39.143Z,3.87
2022-12-20T13:13:38.636Z,3.57
2022-12-20T13:25:03.635Z,3.60
2022-12-20T13:30:28.422Z,4.67
2022-12-20T13:35:48.416Z,4.10
2022-12-20T13:40:49.715Z,3.10
2022-12-20T13:45:52.160Z,4.20
2022-12-20T13:57:47.076Z,3.83
2022-12-20T14:03:46.952Z,3.50
2022-12-20T14:08:58.683Z,3.33
2022-12-20T14:13:58.387Z,4.30
2022-12-20T14:19:02.933Z,3.80
2022-12-20T14:37:58.613Z,3.50
2022-12-20T14:42:57.308Z,4.27
2022-12-20T14:47:59.604Z,3.40
2022-12-20T14:52:59.730Z,3.80
2022-12-20T14:57:58.764Z,4.97
2022-12-20T15:03:04.323Z,3.73
2022-12-20T15:08:17.191Z,3.40
2022-12-20T15:13:16.880Z,3.60
2022-12-20T15:18:15.976Z,3.87
2022-12-20T15:23:17.852Z,4.37
2022-12-20T15:28:18.754Z,4.00
2022-12-20T15:33:18.563Z,3.73
2022-12-20T15:38:25.408Z,3.40
2022-12-20T15:43:38.837Z,3.07
2022-12-20T15:48:37.304Z,3.70
2022-12-20T15:53:36.763Z,4.10
2022-12-20T15:58:35.221Z,3.70
2022-12-20T16:03:33.611Z,2.83
2022-12-20T16:08:31.895Z,3.90
2022-12-20T16:13:31.317Z,3.60
2022-12-20T16:18:34.447Z,3.77
2022-12-20T16:23:32.897Z,3.50
2022-12-20T16:28:32.288Z,3.43
2022-12-20T16:33:30.334Z,4.07
2022-12-20T16:38:28.414Z,3.57
2022-12-20T16:50:24.669Z,4.20
2022-12-20T16:55:24.946Z,3.53
2022-12-20T17:00:25.462Z,2.77
2022-12-20T17:05:28.547Z,3.20
2022-12-20T17:10:28.340Z,4.20
2022-12-20T17:22:25.141Z,3.70
2022-12-20T17:27:23.316Z,4.00
2022-12-20T17:32:24.110Z,4.33
2022-12-20T17:37:24.683Z,5.00
2022-12-20T17:42:28.808Z,4.90
2022-12-20T17:47:29.311Z,4.37
2022-12-20T17:52:29.675Z,4.40
2022-12-20T17:57:28.277Z,4.03
2022-12-20T18:02:27.516Z,3.37
2022-12-20T18:07:25.763Z,3.97
2022-12-20T18:12:25.594Z,3.80
2022-12-20T18:18:13.508Z,4.23
2022-12-20T18:23:11.693Z,4.80
2022-12-20T18:28:11.162Z,4.60
2022-12-20T18:33:09.333Z,5.00
2022-12-20T18:38:07.455Z,5.00
2022-12-20T18:43:06.521Z,5.10
2022-12-20T18:48:06.124Z,4.87
2022-12-20T18:53:04.680Z,5.17
2022-12-20T19:24:57.908Z,5.30
2022-12-20T19:29:56.059Z,5.83
2022-12-20T19:34:54.172Z,6.10
2022-12-20T19:39:52.335Z,6.73
2022-12-20T19:44:52.252Z,6.50
2022-12-20T19:49:51.193Z,5.33
2022-12-20T19:54:56.664Z,6.63
2022-12-20T19:59:56.502Z,5.47
2022-12-20T20:04:54.700Z,6.30
2022-12-20T20:09:53.146Z,6.27
2022-12-20T20:14:53.090Z,6.57
2022-12-20T20:19:53.145Z,6.20
2022-12-20T20:24:51.699Z,5.40
2022-12-20T20:29:51.548Z,5.20
2022-12-20T20:34:50.610Z,5.70
2022-12-20T20:39:50.280Z,5.70
2022-12-20T20:44:48.750Z,5.93
2022-12-20T20:49:47.693Z,6.20
2022-12-20T20:54:46.186Z,6.13
2022-12-20T20:59:46.015Z,5.20
2022-12-20T21:05:05.718Z,6.10
2022-12-20T21:10:05.964Z,5.97
2022-12-20T21:15:24.721Z,5.33
2022-12-20T21:20:26.180Z,6.83
2022-12-20T21:25:25.339Z,5.23
2022-12-20T21:30:25.030Z,6.47
2022-12-20T21:35:23.355Z,6.87
2022-12-20T21:40:35.201Z,5.37
2022-12-20T21:45:36.487Z,4.80
2022-12-20T21:50:34.966Z,6.00
2022-12-20T21:55:33.424Z,4.50
2022-12-20T22:00:32.033Z,7.17
2022-12-20T22:05:32.053Z,6.40
2022-12-20T22:10:30.706Z,6.87
2022-12-20T22:15:28.888Z,6.83
2022-12-20T22:20:27.440Z,7.17
2022-12-20T22:25:27.298Z,6.80
2022-12-20T22:30:25.741Z,8.43
2022-12-20T22:35:24.649Z,8.70
2022-12-20T22:40:23.449Z,7.80
2022-12-20T22:45:23.271Z,7.50
2022-12-20T22:50:21.707Z,9.83
2022-12-20T22:55:20.234Z,10.03
2022-12-20T23:00:18.930Z,8.80
2022-12-20T23:05:18.467Z,9.27
2022-12-20T23:10:33.213Z,7.97
2022-12-20T23:15:43.504Z,7.53
2022-12-20T23:21:00.888Z,8.83
2022-12-20T23:26:10.268Z,8.83
2022-12-20T23:31:10.232Z,7.13
2022-12-20T23:36:11.865Z,8.80
2022-12-20T23:41:11.675Z,6.93
2022-12-20T23:46:13.659Z,7.30
2022-12-20T23:51:13.660Z,6.87
2022-12-20T23:56:13.749Z,5.70
